sensor_id;sensor_type;location;lat;lon;timestamp;pressure;altitude;pressure_sealevel;temperature;humidity
10064;BME280;5071;52.360;13.134;2022-09-03T00:00:55;101480.69;;;11.94;69.15
10064;BME280;5071;52.360;13.134;2022-09-03T00:06:05;101485.09;;;11.87;69.32
10064;BME280;5071;52.360;13.134;2022-09-03T00:11:13;101481.56;;;11.82;69.73
10064;BME280;5071;52.360;13.134;2022-09-03T00:16:22;101481.56;;;11.82;70.07
10064;BME280;5071;52.360;13.134;2022-09-03T00:21:35;101476.31;;;11.73;70.42
10064;BME280;5071;52.360;13.134;2022-09-03T00:26:40;101478.16;;;11.58;70.41
10064;BME280;5071;52.360;13.134;2022-09-03T00:31:48;101481.75;;;11.53;71.09
10064;BME280;5071;52.360;13.134;2022-09-03T00:36:52;101480.00;;;11.47;71.18
10064;BME280;5071;52.360;13.134;2022-09-03T00:42:02;101471.16;;;11.42;70.79
10064;BME280;5071;52.360;13.134;2022-09-03T00:47:12;101472.03;;;11.41;71.65
10064;BME280;5071;52.360;13.134;2022-09-03T00:52:24;101469.41;;;11.38;71.65
10064;BME280;5071;52.360;13.134;2022-09-03T00:57:43;101467.63;;;11.37;70.95
10064;BME280;5071;52.360;13.134;2022-09-03T01:03:03;101465.88;;;11.33;71.28
10064;BME280;5071;52.360;13.134;2022-09-03T01:08:17;101461.50;;;11.22;71.76
10064;BME280;5071;52.360;13.134;2022-09-03T01:13:24;101456.16;;;11.16;71.88
10064;BME280;5071;52.360;13.134;2022-09-03T01:18:38;101453.50;;;11.22;71.18
10064;BME280;5071;52.360;13.134;2022-09-03T01:23:52;101452.59;;;11.22;71.78
10064;BME280;5071;52.360;13.134;2022-09-03T01:29:11;101458.84;;;11.13;72.01
10064;BME280;5071;52.360;13.134;2022-09-03T01:34:24;101449.97;;;11.19;71.23
10064;BME280;5071;52.360;13.134;2022-09-03T01:39:36;101449.06;;;11.21;71.44
10064;BME280;5071;52.360;13.134;2022-09-03T01:50:15;101455.28;;;11.11;71.59
10064;BME280;5071;52.360;13.134;2022-09-03T01:55:29;101446.47;;;11.07;71.84
10064;BME280;5071;52.360;13.134;2022-09-03T02:00:38;101457.09;;;11.01;72.29
10064;BME280;5071;52.360;13.134;2022-09-03T02:05:42;101457.94;;;11.19;71.12
10064;BME280;5071;52.360;13.134;2022-09-03T02:10:46;101455.25;;;11.20;71.35
10064;BME280;5071;52.360;13.134;2022-09-03T02:15:52;101444.66;;;11.17;71.59
10064;BME280;5071;52.360;13.134;2022-09-03T02:20:58;101449.13;;;11.03;71.70
10064;BME280;5071;52.360;13.134;2022-09-03T02:26:02;101442.97;;;10.92;72.80
10064;BME280;5071;52.360;13.134;2022-09-03T02:31:06;101446.53;;;10.81;72.97
10064;BME280;5071;52.360;13.134;2022-09-03T02:36:09;101448.31;;;10.79;73.04
10064;BME280;5071;52.360;13.134;2022-09-03T02:41:12;101450.09;;;10.62;74.33
10064;BME280;5071;52.360;13.134;2022-09-03T02:46:21;101454.53;;;10.58;74.29
10064;BME280;5071;52.360;13.134;2022-09-03T02:51:23;101458.97;;;10.48;75.12
10064;BME280;5071;52.360;13.134;2022-09-03T02:56:27;101451.88;;;10.44;74.80
10064;BME280;5071;52.360;13.134;2022-09-03T03:01:31;101445.72;;;10.36;75.46
10064;BME280;5071;52.360;13.134;2022-09-03T03:06:33;101451.00;;;10.41;74.80
10064;BME280;5071;52.360;13.134;2022-09-03T03:11:35;101447.44;;;10.43;74.96
10064;BME280;5071;52.360;13.134;2022-09-03T03:16:38;101447.47;;;10.45;74.34
10064;BME280;5071;52.360;13.134;2022-09-03T03:21:40;101458.06;;;10.37;75.28
10064;BME280;5071;52.360;13.134;2022-09-03T03:26:43;101457.22;;;10.47;74.31
10064;BME280;5071;52.360;13.134;2022-09-03T03:31:46;101465.16;;;10.55;73.59
10064;BME280;5071;52.360;13.134;2022-09-03T03:36:48;101473.13;;;10.44;74.37
10064;BME280;5071;52.360;13.134;2022-09-03T03:41:50;101467.78;;;10.40;74.20
10064;BME280;5071;52.360;13.134;2022-09-03T03:46:54;101462.50;;;10.44;74.21
10064;BME280;5071;52.360;13.134;2022-09-03T03:51:56;101462.50;;;10.35;74.50
10064;BME280;5071;52.360;13.134;2022-09-03T03:56:58;101462.50;;;10.41;74.14
10064;BME280;5071;52.360;13.134;2022-09-03T04:02:01;101462.50;;;10.44;73.77
10064;BME280;5071;52.360;13.134;2022-09-03T04:07:04;101458.06;;;10.45;73.99
10064;BME280;5071;52.360;13.134;2022-09-03T04:12:06;101460.75;;;10.51;73.65
10064;BME280;5071;52.360;13.134;2022-09-03T04:17:10;101460.72;;;10.53;73.59
10064;BME280;5071;52.360;13.134;2022-09-03T04:22:12;101458.06;;;10.63;73.04
10064;BME280;5071;52.360;13.134;2022-09-03T04:27:14;101448.28;;;10.88;72.46
10064;BME280;5071;52.360;13.134;2022-09-03T04:32:17;101455.34;;;11.02;71.65
10064;BME280;5071;52.360;13.134;2022-09-03T04:37:19;101452.63;;;11.14;71.21
10064;BME280;5071;52.360;13.134;2022-09-03T04:42:21;101455.22;;;11.33;71.00
10064;BME280;5071;52.360;13.134;2022-09-03T04:47:24;101450.78;;;11.39;70.60
10064;BME280;5071;52.360;13.134;2022-09-03T04:52:28;101456.94;;;11.49;70.08
10064;BME280;5071;52.360;13.134;2022-09-03T04:57:29;101452.41;;;11.63;69.41
10064;BME280;5071;52.360;13.134;2022-09-03T05:02:33;101461.16;;;11.85;68.82
10064;BME280;5071;52.360;13.134;2022-09-03T05:07:34;101462.94;;;11.93;68.13
10064;BME280;5071;52.360;13.134;2022-09-03T05:12:36;101466.47;;;11.99;68.27
10064;BME280;5071;52.360;13.134;2022-09-03T05:17:40;101470.81;;;12.10;67.54
10064;BME280;5071;52.360;13.134;2022-09-03T05:22:41;101470.72;;;12.22;67.60
10064;BME280;5071;52.360;13.134;2022-09-03T05:27:43;101467.09;;;12.32;67.40
10064;BME280;5071;52.360;13.134;2022-09-03T05:32:47;101463.34;;;12.52;66.58
10064;BME280;5071;52.360;13.134;2022-09-03T05:37:48;101463.34;;;12.53;66.65
10064;BME280;5071;52.360;13.134;2022-09-03T05:42:54;101467.66;;;12.67;66.26
10064;BME280;5071;52.360;13.134;2022-09-03T05:48:00;101462.13;;;12.90;65.38
10064;BME280;5071;52.360;13.134;2022-09-03T05:53:01;101470.91;;;12.98;65.19
10064;BME280;5071;52.360;13.134;2022-09-03T05:58:04;101472.56;;;13.10;65.10
10064;BME280;5071;52.360;13.134;2022-09-03T06:03:07;101467.81;;;13.39;64.03
10064;BME280;5071;52.360;13.134;2022-09-03T06:08:09;101466.00;;;13.43;63.98
10064;BME280;5071;52.360;13.134;2022-09-03T06:13:13;101474.63;;;13.64;63.36
10064;BME280;5071;52.360;13.134;2022-09-03T06:18:17;101473.63;;;13.72;63.96
10064;BME280;5071;52.360;13.134;2022-09-03T06:23:19;101476.13;;;13.83;63.19
10064;BME280;5071;52.360;13.134;2022-09-03T06:28:21;101481.28;;;13.97;63.46
10064;BME280;5071;52.360;13.134;2022-09-03T06:33:26;101478.72;;;13.89;63.50
10064;BME280;5071;52.360;13.134;2022-09-03T06:38:30;101488.03;;;14.21;62.63
10064;BME280;5071;52.360;13.134;2022-09-03T06:43:34;101488.56;;;14.43;62.17
10064;BME280;5071;52.360;13.134;2022-09-03T06:48:38;101484.59;;;14.69;61.78
10064;BME280;5071;52.360;13.134;2022-09-03T06:53:41;101484.13;;;14.96;61.03
10064;BME280;5071;52.360;13.134;2022-09-03T06:58:45;101482.75;;;15.22;60.01
10064;BME280;5071;52.360;13.134;2022-09-03T07:03:52;101478.16;;;15.27;59.56
10064;BME280;5071;52.360;13.134;2022-09-03T07:08:54;101482.31;;;14.97;60.23
10064;BME280;5071;52.360;13.134;2022-09-03T07:13:58;101485.63;;;15.11;60.29
10064;BME280;5071;52.360;13.134;2022-09-03T07:19:01;101478.22;;;15.68;59.35
10064;BME280;5071;52.360;13.134;2022-09-03T07:24:04;101497.22;;;15.98;59.05
10064;BME280;5071;52.360;13.134;2022-09-03T07:29:07;101492.13;;;15.85;58.25
10064;BME280;5071;52.360;13.134;2022-09-03T07:34:11;101489.69;;;16.15;57.49
10064;BME280;5071;52.360;13.134;2022-09-03T07:39:14;101498.38;;;15.86;58.60
10064;BME280;5071;52.360;13.134;2022-09-03T07:44:17;101500.78;;;16.71;56.82
10064;BME280;5071;52.360;13.134;2022-09-03T07:49:20;101504.53;;;16.64;56.46
10064;BME280;5071;52.360;13.134;2022-09-03T07:54:23;101502.09;;;16.91;55.72
10064;BME280;5071;52.360;13.134;2022-09-03T07:59:25;101499.53;;;16.86;56.27
10064;BME280;5071;52.360;13.134;2022-09-03T08:04:28;101508.63;;;16.45;57.35
10064;BME280;5071;52.360;13.134;2022-09-03T08:09:30;101511.88;;;16.94;56.72
10064;BME280;5071;52.360;13.134;2022-09-03T08:14:32;101500.09;;;16.99;57.30
10064;BME280;5071;52.360;13.134;2022-09-03T08:19:35;101506.09;;;17.42;55.46
10064;BME280;5071;52.360;13.134;2022-09-03T08:24:37;101494.00;;;17.27;55.41
10064;BME280;5071;52.360;13.134;2022-09-03T08:29:40;101491.31;;;17.27;55.42
10064;BME280;5071;52.360;13.134;2022-09-03T08:34:43;101486.19;;;17.49;54.76
10064;BME280;5071;52.360;13.134;2022-09-03T08:39:45;101487.16;;;17.46;55.86
10064;BME280;5071;52.360;13.134;2022-09-03T08:44:49;101480.75;;;18.12;55.60
10064;BME280;5071;52.360;13.134;2022-09-03T08:49:57;101470.22;;;18.32;53.63
10064;BME280;5071;52.360;13.134;2022-09-03T08:55:12;101475.91;;;18.50;52.31
10064;BME280;5071;52.360;13.134;2022-09-03T09:00:17;101461.63;;;18.74;51.50
10064;BME280;5071;52.360;13.134;2022-09-03T09:05:23;101472.88;;;18.87;50.55
10064;BME280;5071;52.360;13.134;2022-09-03T09:10:33;101457.09;;;19.50;49.08
10064;BME280;5071;52.360;13.134;2022-09-03T09:15:43;101459.66;;;20.23;46.46
10064;BME280;5071;52.360;13.134;2022-09-03T09:20:55;101464.84;;;23.98;40.25
10064;BME280;5071;52.360;13.134;2022-09-03T09:26:05;101458.75;;;27.60;32.85
10064;BME280;5071;52.360;13.134;2022-09-03T09:31:10;101457.22;;;27.69;31.70
10064;BME280;5071;52.360;13.134;2022-09-03T09:36:16;101436.00;;;28.93;30.56
10064;BME280;5071;52.360;13.134;2022-09-03T09:41:19;101429.44;;;26.47;30.80
10064;BME280;5071;52.360;13.134;2022-09-03T09:46:31;101439.03;;;28.66;29.75
10064;BME280;5071;52.360;13.134;2022-09-03T09:51:38;101426.91;;;28.46;29.85
10064;BME280;5071;52.360;13.134;2022-09-03T09:56:41;101409.75;;;31.10;27.46
10064;BME280;5071;52.360;13.134;2022-09-03T10:01:44;101402.16;;;31.24;25.36
10064;BME280;5071;52.360;13.134;2022-09-03T10:06:52;101398.91;;;27.20;29.81
10064;BME280;5071;52.360;13.134;2022-09-03T10:12:08;101398.53;;;30.50;25.25
10064;BME280;5071;52.360;13.134;2022-09-03T10:17:18;101406.66;;;28.13;26.92
10064;BME280;5071;52.360;13.134;2022-09-03T10:22:27;101396.97;;;28.80;26.29
10064;BME280;5071;52.360;13.134;2022-09-03T10:27:36;101389.16;;;28.98;25.42
10064;BME280;5071;52.360;13.134;2022-09-03T10:32:46;101393.19;;;29.27;23.90
10064;BME280;5071;52.360;13.134;2022-09-03T10:38:02;101386.78;;;28.82;24.72
10064;BME280;5071;52.360;13.134;2022-09-03T10:43:21;101373.59;;;29.89;23.79
10064;BME280;5071;52.360;13.134;2022-09-03T10:48:38;101373.72;;;25.71;28.39
10064;BME280;5071;52.360;13.134;2022-09-03T10:54:03;101370.44;;;23.25;32.97
10064;BME280;5071;52.360;13.134;2022-09-03T10:59:26;101372.44;;;23.21;33.26
10064;BME280;5071;52.360;13.134;2022-09-03T11:04:38;101365.41;;;22.50;33.98
10064;BME280;5071;52.360;13.134;2022-09-03T11:09:49;101373.53;;;23.51;33.54
10064;BME280;5071;52.360;13.134;2022-09-03T11:14:58;101372.94;;;22.79;34.45
10064;BME280;5071;52.360;13.134;2022-09-03T11:20:10;101366.66;;;22.61;33.88
10064;BME280;5071;52.360;13.134;2022-09-03T11:25:16;101352.59;;;23.05;34.42
10064;BME280;5071;52.360;13.134;2022-09-03T11:30:22;101353.56;;;22.69;34.64
10064;BME280;5071;52.360;13.134;2022-09-03T11:35:27;101346.34;;;23.03;34.47
10064;BME280;5071;52.360;13.134;2022-09-03T11:40:34;101332.97;;;23.33;34.20
10064;BME280;5071;52.360;13.134;2022-09-03T11:45:37;101338.84;;;22.41;36.33
10064;BME280;5071;52.360;13.134;2022-09-03T11:50:51;101333.13;;;23.46;33.75
10064;BME280;5071;52.360;13.134;2022-09-03T11:55:59;101334.81;;;22.99;34.72
10064;BME280;5071;52.360;13.134;2022-09-03T12:01:07;101333.28;;;21.90;35.55
10064;BME280;5071;52.360;13.134;2022-09-03T12:06:29;101323.69;;;22.02;35.61
10064;BME280;5071;52.360;13.134;2022-09-03T12:11:50;101315.63;;;23.99;33.04
10064;BME280;5071;52.360;13.134;2022-09-03T12:17:10;101305.88;;;23.33;34.45
10064;BME280;5071;52.360;13.134;2022-09-03T12:22:16;101299.91;;;22.44;35.01
10064;BME280;5071;52.360;13.134;2022-09-03T12:27:22;101308.44;;;22.36;35.14
10064;BME280;5071;52.360;13.134;2022-09-03T12:32:25;101308.47;;;23.35;34.61
10064;BME280;5071;52.360;13.134;2022-09-03T12:37:32;101308.47;;;23.35;33.59
10064;BME280;5071;52.360;13.134;2022-09-03T12:43:11;101295.34;;;22.62;34.40
10064;BME280;5071;52.360;13.134;2022-09-03T12:48:34;101284.22;;;22.50;35.01
10064;BME280;5071;52.360;13.134;2022-09-03T12:53:41;101286.22;;;22.29;35.94
10064;BME280;5071;52.360;13.134;2022-09-03T12:58:47;101286.84;;;22.85;36.49
10064;BME280;5071;52.360;13.134;2022-09-03T13:03:54;101288.72;;;22.34;36.33
10064;BME280;5071;52.360;13.134;2022-09-03T13:09:01;101272.78;;;22.28;35.46
10064;BME280;5071;52.360;13.134;2022-09-03T13:14:06;101280.47;;;22.86;34.70
10064;BME280;5071;52.360;13.134;2022-09-03T13:19:15;101270.66;;;22.84;34.76
10064;BME280;5071;52.360;13.134;2022-09-03T13:24:40;101279.06;;;22.79;35.05
10064;BME280;5071;52.360;13.134;2022-09-03T13:30:10;101278.78;;;22.68;35.65
10064;BME280;5071;52.360;13.134;2022-09-03T13:35:32;101272.81;;;22.61;36.06
10064;BME280;5071;52.360;13.134;2022-09-03T13:40:46;101272.88;;;22.60;36.59
10064;BME280;5071;52.360;13.134;2022-09-03T13:45:57;101262.25;;;22.22;36.58
10064;BME280;5071;52.360;13.134;2022-09-03T13:51:12;101268.63;;;21.86;37.27
10064;BME280;5071;52.360;13.134;2022-09-03T13:56:33;101255.44;;;23.31;36.36
10064;BME280;5071;52.360;13.134;2022-09-03T14:01:57;101253.78;;;23.12;36.33
10064;BME280;5071;52.360;13.134;2022-09-03T14:07:08;101260.63;;;22.70;35.97
10064;BME280;5071;52.360;13.134;2022-09-03T14:12:42;101249.78;;;22.70;36.43
10064;BME280;5071;52.360;13.134;2022-09-03T14:17:56;101237.88;;;22.90;35.24
10064;BME280;5071;52.360;13.134;2022-09-03T14:23:22;101242.16;;;23.10;35.37
10064;BME280;5071;52.360;13.134;2022-09-03T14:28:39;101236.50;;;24.07;34.39
10064;BME280;5071;52.360;13.134;2022-09-03T14:34:03;101225.91;;;24.02;33.69
10064;BME280;5071;52.360;13.134;2022-09-03T14:39:47;101229.22;;;23.77;34.58
10064;BME280;5071;52.360;13.134;2022-09-03T14:50:56;101228.63;;;23.72;33.89
10064;BME280;5071;52.360;13.134;2022-09-03T14:56:28;101234.03;;;23.88;33.90
10064;BME280;5071;52.360;13.134;2022-09-03T15:01:38;101216.72;;;23.44;33.81
10064;BME280;5071;52.360;13.134;2022-09-03T15:06:59;101213.19;;;23.58;34.69
10064;BME280;5071;52.360;13.134;2022-09-03T15:12:17;101220.22;;;23.46;35.21
10064;BME280;5071;52.360;13.134;2022-09-03T15:17:34;101228.47;;;23.13;35.23
10064;BME280;5071;52.360;13.134;2022-09-03T15:23:06;101223.88;;;22.98;35.63
10064;BME280;5071;52.360;13.134;2022-09-03T15:28:26;101229.28;;;23.61;35.35
10064;BME280;5071;52.360;13.134;2022-09-03T15:33:41;101228.91;;;23.67;35.10
10064;BME280;5071;52.360;13.134;2022-09-03T15:38:59;101223.53;;;23.20;36.37
10064;BME280;5071;52.360;13.134;2022-09-03T15:44:38;101228.16;;;23.02;35.33
10064;BME280;5071;52.360;13.134;2022-09-03T15:49:52;101234.81;;;23.12;35.31
10064;BME280;5071;52.360;13.134;2022-09-03T15:55:22;101237.53;;;23.12;36.02
10064;BME280;5071;52.360;13.134;2022-09-03T16:00:50;101228.97;;;23.04;36.44
10064;BME280;5071;52.360;13.134;2022-09-03T16:05:57;101232.34;;;22.42;37.33
10064;BME280;5071;52.360;13.134;2022-09-03T16:11:08;101226.59;;;22.15;37.59
10064;BME280;5071;52.360;13.134;2022-09-03T16:16:18;101227.28;;;22.19;37.35
10064;BME280;5071;52.360;13.134;2022-09-03T16:21:27;101225.66;;;21.81;37.93
10064;BME280;5071;52.360;13.134;2022-09-03T16:26:35;101234.63;;;21.64;38.39
10064;BME280;5071;52.360;13.134;2022-09-03T16:31:48;101233.97;;;21.77;38.68
10064;BME280;5071;52.360;13.134;2022-09-03T16:37:03;101237.78;;;21.72;37.80
10064;BME280;5071;52.360;13.134;2022-09-03T16:42:13;101229.50;;;21.58;39.09
10064;BME280;5071;52.360;13.134;2022-09-03T16:47:28;101231.59;;;21.53;38.99
10064;BME280;5071;52.360;13.134;2022-09-03T16:52:40;101225.81;;;21.42;38.98
10064;BME280;5071;52.360;13.134;2022-09-03T16:58:09;101223.84;;;21.45;39.64
10064;BME280;5071;52.360;13.134;2022-09-03T17:03:40;101236.97;;;21.34;39.75
10064;BME280;5071;52.360;13.134;2022-09-03T17:08:52;101225.47;;;21.11;40.19
10064;BME280;5071;52.360;13.134;2022-09-03T17:14:16;101234.56;;;20.91;40.16
10064;BME280;5071;52.360;13.134;2022-09-03T17:19:28;101238.94;;;20.75;40.82
10064;BME280;5071;52.360;13.134;2022-09-03T17:24:36;101240.31;;;20.44;41.81
10064;BME280;5071;52.360;13.134;2022-09-03T17:29:54;101234.97;;;20.24;42.69
10064;BME280;5071;52.360;13.134;2022-09-03T17:35:08;101234.41;;;20.15;41.74
10064;BME280;5071;52.360;13.134;2022-09-03T17:40:21;101239.16;;;20.10;42.31
10064;BME280;5071;52.360;13.134;2022-09-03T17:45:36;101238.66;;;20.00;42.60
10064;BME280;5071;52.360;13.134;2022-09-03T17:50:47;101246.91;;;19.97;43.86
10064;BME280;5071;52.360;13.134;2022-09-03T17:55:54;101251.72;;;19.89;42.99
10064;BME280;5071;52.360;13.134;2022-09-03T18:01:03;101256.13;;;19.92;42.89
10064;BME280;5071;52.360;13.134;2022-09-03T18:06:10;101260.94;;;19.84;42.79
10064;BME280;5071;52.360;13.134;2022-09-03T18:11:28;101269.53;;;19.71;43.77
10064;BME280;5071;52.360;13.134;2022-09-03T18:16:40;101268.09;;;19.62;43.81
10064;BME280;5071;52.360;13.134;2022-09-03T18:21:42;101282.63;;;19.58;43.55
10064;BME280;5071;52.360;13.134;2022-09-03T18:26:49;101278.38;;;19.53;43.25
10064;BME280;5071;52.360;13.134;2022-09-03T18:31:57;101286.00;;;19.41;43.80
10064;BME280;5071;52.360;13.134;2022-09-03T18:37:00;101283.44;;;19.38;44.46
10064;BME280;5071;52.360;13.134;2022-09-03T18:42:06;101290.00;;;19.31;44.34
10064;BME280;5071;52.360;13.134;2022-09-03T18:47:29;101292.13;;;19.23;44.59
10064;BME280;5071;52.360;13.134;2022-09-03T18:52:57;101297.31;;;19.06;46.12
10064;BME280;5071;52.360;13.134;2022-09-03T18:58:09;101292.75;;;19.08;45.40
10064;BME280;5071;52.360;13.134;2022-09-03T19:03:28;101296.59;;;19.00;44.75
10064;BME280;5071;52.360;13.134;2022-09-03T19:08:40;101296.66;;;18.99;45.73
10064;BME280;5071;52.360;13.134;2022-09-03T19:13:44;101293.19;;;18.95;44.88
10064;BME280;5071;52.360;13.134;2022-09-03T19:19:14;101295.13;;;18.92;44.97
10064;BME280;5071;52.360;13.134;2022-09-03T19:24:26;101299.25;;;18.77;45.75
10064;BME280;5071;52.360;13.134;2022-09-03T19:29:44;101299.94;;;18.58;46.22
10064;BME280;5071;52.360;13.134;2022-09-03T19:35:05;101300.50;;;18.43;47.13
10064;BME280;5071;52.360;13.134;2022-09-03T19:40:21;101310.56;;;18.11;48.81
10064;BME280;5071;52.360;13.134;2022-09-03T19:45:30;101316.88;;;17.83;49.54
10064;BME280;5071;52.360;13.134;2022-09-03T19:50:43;101310.94;;;17.74;50.11
10064;BME280;5071;52.360;13.134;2022-09-03T19:55:52;101309.13;;;17.74;50.15
10064;BME280;5071;52.360;13.134;2022-09-03T20:00:55;101317.59;;;17.88;49.56
10064;BME280;5071;52.360;13.134;2022-09-03T20:06:02;101313.09;;;17.91;48.92
10064;BME280;5071;52.360;13.134;2022-09-03T20:11:17;101324.72;;;18.16;48.08
10064;BME280;5071;52.360;13.134;2022-09-03T20:16:25;101325.03;;;18.07;48.18
10064;BME280;5071;52.360;13.134;2022-09-03T20:21:35;101327.94;;;18.01;48.18
10064;BME280;5071;52.360;13.134;2022-09-03T20:26:46;101336.47;;;17.87;48.92
10064;BME280;5071;52.360;13.134;2022-09-03T20:31:56;101331.22;;;17.82;49.35
10064;BME280;5071;52.360;13.134;2022-09-03T20:37:09;101335.44;;;17.63;49.13
10064;BME280;5071;52.360;13.134;2022-09-03T20:42:30;101334.38;;;17.68;48.81
10064;BME280;5071;52.360;13.134;2022-09-03T20:47:50;101337.09;;;17.67;49.04
10064;BME280;5071;52.360;13.134;2022-09-03T20:53:06;101342.75;;;17.58;50.35
10064;BME280;5071;52.360;13.134;2022-09-03T20:58:17;101335.81;;;17.51;49.60
10064;BME280;5071;52.360;13.134;2022-09-03T21:03:27;101348.31;;;17.52;49.88
10064;BME280;5071;52.360;13.134;2022-09-03T21:08:53;101342.97;;;17.52;49.59
10064;BME280;5071;52.360;13.134;2022-09-03T21:14:03;101339.38;;;17.51;49.38
10064;BME280;5071;52.360;13.134;2022-09-03T21:19:17;101342.75;;;17.58;49.70
10064;BME280;5071;52.360;13.134;2022-09-03T21:24:26;101342.31;;;17.43;49.33
10064;BME280;5071;52.360;13.134;2022-09-03T21:29:37;101353.25;;;17.37;50.03
10064;BME280;5071;52.360;13.134;2022-09-03T21:34:47;101354.06;;;17.39;49.81
10064;BME280;5071;52.360;13.134;2022-09-03T21:39:54;101370.03;;;17.14;50.23
10064;BME280;5071;52.360;13.134;2022-09-03T21:44:59;101371.25;;;17.02;50.51
10064;BME280;5071;52.360;13.134;2022-09-03T21:50:07;101360.09;;;16.86;51.63
10064;BME280;5071;52.360;13.134;2022-09-03T21:55:21;101370.25;;;16.74;51.16
10064;BME280;5071;52.360;13.134;2022-09-03T22:00:28;101369.25;;;16.78;51.08
10064;BME280;5071;52.360;13.134;2022-09-03T22:05:40;101370.72;;;16.57;51.88
10064;BME280;5071;52.360;13.134;2022-09-03T22:10:54;101373.63;;;16.49;51.85
10064;BME280;5071;52.360;13.134;2022-09-03T22:16:05;101376.38;;;16.46;51.71
10064;BME280;5071;52.360;13.134;2022-09-03T22:21:19;101367.75;;;16.35;51.98
10064;BME280;5071;52.360;13.134;2022-09-03T22:26:30;101382.25;;;16.27;52.80
10064;BME280;5071;52.360;13.134;2022-09-03T22:31:45;101391.47;;;16.14;52.62
10064;BME280;5071;52.360;13.134;2022-09-03T22:36:52;101386.84;;;16.21;52.30
10064;BME280;5071;52.360;13.134;2022-09-03T22:42:11;101388.63;;;16.22;52.52
10064;BME280;5071;52.360;13.134;2022-09-03T22:47:22;101401.34;;;16.12;53.10
10064;BME280;5071;52.360;13.134;2022-09-03T22:52:33;101407.72;;;16.08;52.81
10064;BME280;5071;52.360;13.134;2022-09-03T22:57:48;101392.84;;;15.96;52.92
10064;BME280;5071;52.360;13.134;2022-09-03T23:02:57;101401.84;;;15.93;53.22
10064;BME280;5071;52.360;13.134;2022-09-03T23:08:08;101414.41;;;15.90;53.24
10064;BME280;5071;52.360;13.134;2022-09-03T23:13:15;101411.66;;;15.91;53.07
10064;BME280;5071;52.360;13.134;2022-09-03T23:18:23;101422.53;;;15.85;53.16
10064;BME280;5071;52.360;13.134;2022-09-03T23:23:28;101419.94;;;15.82;53.37
10064;BME280;5071;52.360;13.134;2022-09-03T23:28:35;101422.09;;;15.63;53.80
10064;BME280;5071;52.360;13.134;2022-09-03T23:33:39;101422.41;;;15.49;54.49
10064;BME280;5071;52.360;13.134;2022-09-03T23:38:52;101422.63;;;15.39;55.13
10064;BME280;5071;52.360;13.134;2022-09-03T23:44:17;101424.63;;;15.30;55.12
10064;BME280;5071;52.360;13.134;2022-09-03T23:49:35;101421.28;;;15.19;55.80
10064;BME280;5071;52.360;13.134;2022-09-03T23:54:45;101417.66;;;15.22;55.49
